Time;durP1;ratioP1;P1;durP2;ratioP2;P2;SDS_P1;SDS_P2;PMS_P1;PMS_P2;Temp;Humidity;BMP_temperature;BMP_pressure;BME280_temperature;BME280_humidity;BME280_pressure;Samples;Min_cycle;Max_cycle;Signal;HPM_P1;HPM_P2
2022/11/10 00:00:43;;;;;;;12.30;2.35;;;9.70;99.90;;;;;;5106120;28;20078;-74
2022/11/10 00:03:10;;;;;;;9.85;2.08;;;9.70;99.90;;;;;;5108505;27;20052;-74
2022/11/10 00:05:37;;;;;;;17.63;2.83;;;9.70;99.90;;;;;;5109245;28;20404;-74
2022/11/10 00:08:05;;;;;;;11.68;2.22;;;9.70;99.90;;;;;;5108860;28;20043;-73
2022/11/10 00:10:32;;;;;;;12.68;2.30;;;9.70;99.90;;;;;;5089356;28;20036;-74
2022/11/10 00:13:01;;;;;;;11.43;2.30;;;9.70;99.90;;;;;;5106820;28;20051;-74
2022/11/10 00:18:12;;;;;;;10.57;2.38;;;9.60;99.90;;;;;;5105674;28;20528;-74
2022/11/10 00:20:38;;;;;;;12.60;2.38;;;9.80;99.90;;;;;;5089144;28;20126;-73
2022/11/10 00:23:04;;;;;;;14.57;3.10;;;9.60;99.90;;;;;;5108399;28;20084;-74
2022/11/10 00:25:31;;;;;;;11.00;2.42;;;9.60;99.90;;;;;;5111011;27;20087;-74
2022/11/10 00:27:58;;;;;;;15.20;2.63;;;9.60;99.90;;;;;;5092825;27;20177;-74
2022/11/10 00:30:25;;;;;;;13.73;3.25;;;9.70;99.90;;;;;;5093717;27;20035;-74
2022/11/10 00:32:50;;;;;;;15.02;2.72;;;9.60;99.90;;;;;;5128506;27;20503;-74
2022/11/10 00:35:16;;;;;;;11.65;2.90;;;9.60;99.90;;;;;;5110040;27;20043;-74
2022/11/10 00:37:42;;;;;;;11.80;2.80;;;9.60;99.90;;;;;;5106909;27;20093;-74
2022/11/10 00:40:08;;;;;;;11.77;2.78;;;9.70;99.90;;;;;;5108495;27;20054;-74
2022/11/10 00:42:35;;;;;;;12.32;3.08;;;9.60;99.90;;;;;;5092372;27;20118;-74
2022/11/10 00:45:00;;;;;;;14.27;3.25;;;9.60;99.90;;;;;;5090305;27;20057;-74
2022/11/10 00:47:26;;;;;;;14.98;3.47;;;9.60;99.90;;;;;;5108792;27;20039;-74
2022/11/10 00:49:52;;;;;;;17.15;3.17;;;9.90;99.90;;;;;;5109347;27;20031;-74
2022/11/10 00:52:18;;;;;;;16.02;3.38;;;9.90;99.90;;;;;;5141523;27;20134;-74
2022/11/10 00:54:43;;;;;;;21.73;3.58;;;9.60;99.90;;;;;;5127077;27;20460;-74
2022/11/10 00:57:09;;;;;;;14.40;4.03;;;9.60;99.90;;;;;;5129184;27;20039;-75
2022/11/10 00:59:35;;;;;;;19.13;3.85;;;9.60;99.90;;;;;;5140711;27;20050;-74
2022/11/10 01:02:01;;;;;;;17.65;3.53;;;9.60;99.90;;;;;;5108203;27;20550;-75
2022/11/10 01:04:27;;;;;;;13.98;3.00;;;9.60;99.90;;;;;;5107328;27;20038;-74
2022/11/10 01:06:52;;;;;;;13.82;3.30;;;9.60;99.90;;;;;;5126433;27;20540;-74
2022/11/10 01:09:18;;;;;;;14.40;3.28;;;9.60;99.90;;;;;;5108578;27;20121;-74
2022/11/10 01:11:44;;;;;;;15.68;3.17;;;9.60;99.90;;;;;;5109024;27;20407;-74
2022/11/10 01:14:09;;;;;;;16.63;3.10;;;9.80;99.90;;;;;;5123143;27;20051;-74
2022/11/10 01:16:35;;;;;;;20.75;3.45;;;9.60;99.90;;;;;;5107022;27;20031;-74
2022/11/10 01:19:02;;;;;;;15.45;2.85;;;9.60;99.90;;;;;;5108111;27;20046;-74
2022/11/10 01:21:29;;;;;;;17.13;2.97;;;9.60;99.90;;;;;;5125344;27;20947;-74
2022/11/10 01:23:55;;;;;;;15.15;2.78;;;9.60;99.90;;;;;;5107651;27;20200;-73
2022/11/10 01:26:21;;;;;;;19.27;2.92;;;9.60;99.90;;;;;;5108282;27;20054;-74
2022/11/10 01:28:47;;;;;;;12.55;2.78;;;9.60;99.90;;;;;;5122630;27;20404;-73
2022/11/10 01:31:18;;;;;;;12.93;2.85;;;9.60;99.90;;;;;;5108900;27;20126;-74
2022/11/10 01:33:44;;;;;;;15.27;2.92;;;9.60;99.90;;;;;;5106154;27;20396;-73
2022/11/10 01:36:11;;;;;;;13.43;2.85;;;9.60;99.90;;;;;;5108167;27;20031;-73
2022/11/10 01:38:39;;;;;;;16.35;3.60;;;9.50;99.90;;;;;;5132545;27;20074;-74
2022/11/10 01:41:07;;;;;;;19.58;3.25;;;9.60;99.90;;;;;;5124118;27;20050;-74
2022/11/10 01:43:33;;;;;;;17.33;3.47;;;9.60;99.90;;;;;;5090884;27;20404;-74
2022/11/10 01:46:07;;;;;;;17.67;3.75;;;9.50;99.90;;;;;;5121986;27;20043;-74
2022/11/10 01:49:05;;;;;;;16.23;2.90;;;9.50;99.90;;;;;;5127641;27;20038;-74
2022/11/10 01:51:37;;;;;;;14.95;3.15;;;9.50;99.90;;;;;;5081532;27;20441;-74
2022/11/10 01:54:07;;;;;;;19.83;3.60;;;9.50;99.90;;;;;;5108400;27;20471;-74
2022/11/10 01:56:37;;;;;;;13.63;3.63;;;9.50;99.90;;;;;;5126713;27;20034;-74
2022/11/10 01:59:11;;;;;;;16.60;3.78;;;9.50;99.90;;;;;;5135832;27;20043;-74
2022/11/10 02:01:37;;;;;;;16.67;3.38;;;9.50;99.90;;;;;;5142648;27;20046;-74
2022/11/10 02:04:07;;;;;;;16.80;3.85;;;9.50;99.90;;;;;;5109046;27;20385;-74
2022/11/10 02:06:36;;;;;;;20.67;3.83;;;9.60;99.90;;;;;;5104629;28;20062;-74
2022/11/10 02:09:02;;;;;;;13.50;3.53;;;9.50;99.90;;;;;;5108039;28;20444;-74
2022/11/10 02:11:30;;;;;;;18.73;4.47;;;9.50;99.90;;;;;;5107664;28;20046;-74
2022/11/10 02:13:56;;;;;;;20.55;3.58;;;9.70;99.90;;;;;;5107175;28;20047;-74
2022/11/10 02:16:22;;;;;;;16.52;4.15;;;9.50;99.90;;;;;;5108494;28;20149;-74
2022/11/10 02:18:48;;;;;;;16.02;4.10;;;9.50;99.90;;;;;;5107992;27;20056;-75
2022/11/10 02:21:19;;;;;;;15.93;4.03;;;9.50;99.90;;;;;;5108302;28;20500;-75
2022/11/10 02:23:51;;;;;;;16.60;4.27;;;9.40;99.90;;;;;;5107696;28;20047;-75
2022/11/10 02:26:22;;;;;;;23.48;4.05;;;9.40;99.90;;;;;;5090479;28;20047;-74
2022/11/10 02:28:47;;;;;;;14.73;3.40;;;9.40;99.90;;;;;;5091101;28;20043;-75
2022/11/10 02:31:13;;;;;;;21.88;3.90;;;9.40;99.90;;;;;;5124065;27;20412;-74
2022/11/10 02:33:39;;;;;;;14.85;4.10;;;9.40;99.90;;;;;;5105500;28;20031;-74
2022/11/10 02:36:06;;;;;;;11.45;3.65;;;9.40;99.90;;;;;;5108718;28;20051;-73
2022/11/10 02:38:31;;;;;;;17.90;3.85;;;9.40;99.90;;;;;;5108545;28;20039;-73
2022/11/10 02:40:57;;;;;;;16.00;3.67;;;9.40;99.90;;;;;;5107326;28;20066;-74
2022/11/10 02:43:23;;;;;;;17.52;3.65;;;9.40;99.90;;;;;;5125380;27;20043;-74
2022/11/10 02:45:49;;;;;;;13.27;3.67;;;9.40;99.90;;;;;;5090818;28;20492;-73
2022/11/10 02:48:15;;;;;;;18.40;4.05;;;9.40;99.90;;;;;;5125642;27;20035;-74
2022/11/10 02:50:41;;;;;;;21.73;3.95;;;9.40;99.90;;;;;;5126620;28;20039;-73
2022/11/10 02:53:07;;;;;;;23.08;4.18;;;9.40;99.90;;;;;;5107941;28;20229;-73
2022/11/10 02:55:33;;;;;;;20.27;4.30;;;9.40;99.90;;;;;;5124899;27;20639;-73
2022/11/10 02:57:58;;;;;;;15.30;4.05;;;9.40;99.90;;;;;;5127745;27;20074;-73
2022/11/10 03:00:25;;;;;;;14.63;3.70;;;9.40;99.90;;;;;;5107195;27;20035;-73
2022/11/10 03:03:00;;;;;;;12.88;3.50;;;9.40;99.90;;;;;;5108941;28;20042;-73
2022/11/10 03:05:25;;;;;;;20.52;3.90;;;9.40;99.90;;;;;;5092596;28;20059;-73
2022/11/10 03:07:56;;;;;;;17.35;4.00;;;9.40;99.90;;;;;;5126534;27;20117;-74
2022/11/10 03:10:22;;;;;;;22.95;5.15;;;9.40;99.90;;;;;;5126216;27;20062;-74
2022/11/10 03:12:48;;;;;;;17.45;3.47;;;9.40;99.90;;;;;;5141110;27;20058;-75
2022/11/10 03:15:14;;;;;;;11.50;2.90;;;9.40;99.90;;;;;;5112128;27;20054;-74
2022/11/10 03:17:40;;;;;;;13.88;3.38;;;9.40;99.90;;;;;;5110027;27;20577;-74
2022/11/10 03:20:06;;;;;;;15.70;3.42;;;9.40;99.90;;;;;;5130304;27;20035;-75
2022/11/10 03:22:32;;;;;;;14.32;3.63;;;9.40;99.90;;;;;;5130174;27;20031;-75
2022/11/10 03:24:58;;;;;;;22.63;4.20;;;9.50;99.90;;;;;;5110780;27;20046;-74
2022/11/10 03:27:23;;;;;;;12.63;3.88;;;9.50;99.90;;;;;;5096564;27;20048;-75
2022/11/10 03:29:49;;;;;;;18.25;4.05;;;9.50;99.90;;;;;;5106194;27;20240;-75
2022/11/10 03:32:15;;;;;;;23.05;4.45;;;9.50;99.90;;;;;;5111992;27;20066;-76
2022/11/10 03:34:40;;;;;;;17.40;3.38;;;9.50;99.90;;;;;;5094276;27;20078;-75
2022/11/10 03:37:06;;;;;;;18.77;4.10;;;9.50;99.90;;;;;;5112019;27;20047;-75
2022/11/10 03:39:31;;;;;;;15.52;4.30;;;9.50;99.90;;;;;;5131707;27;20399;-75
2022/11/10 03:41:57;;;;;;;20.08;3.60;;;9.50;99.90;;;;;;5095054;27;20084;-74
2022/11/10 03:44:23;;;;;;;15.98;3.47;;;9.50;99.90;;;;;;5129462;27;20050;-75
2022/11/10 03:46:49;;;;;;;20.20;3.83;;;9.50;99.90;;;;;;5111474;27;20055;-75
2022/11/10 03:49:14;;;;;;;14.95;3.40;;;9.50;99.90;;;;;;5144796;27;20112;-75
2022/11/10 03:51:40;;;;;;;20.80;3.92;;;9.50;99.90;;;;;;5122874;27;20050;-74
2022/11/10 03:54:06;;;;;;;15.65;3.60;;;9.50;99.90;;;;;;5141714;27;20040;-75
2022/11/10 03:56:31;;;;;;;13.23;3.22;;;9.50;99.90;;;;;;5130118;27;20067;-75
2022/11/10 03:58:57;;;;;;;16.70;3.42;;;9.80;99.90;;;;;;5127507;27;20515;-75
2022/11/10 04:01:23;;;;;;;21.00;4.00;;;9.50;99.90;;;;;;5110893;27;20088;-75
2022/11/10 04:03:49;;;;;;;22.23;3.10;;;9.50;99.90;;;;;;5095179;27;20035;-72
2022/11/10 04:09:04;;;;;;;16.88;3.80;;;9.50;99.90;;;;;;5110858;27;20510;-72
2022/11/10 04:17:01;;;;;;;18.80;3.47;;;9.50;99.90;;;;;;5110346;27;20074;-72
2022/11/10 04:19:27;;;;;;;14.63;3.10;;;9.50;99.90;;;;;;5110057;27;20050;-72
2022/11/10 04:21:52;;;;;;;19.00;3.65;;;9.50;99.90;;;;;;5109536;27;20043;-72
2022/11/10 04:24:19;;;;;;;17.38;3.70;;;9.50;99.90;;;;;;5094264;27;20035;-72
2022/11/10 04:26:46;;;;;;;24.23;3.97;;;9.50;99.90;;;;;;5110244;27;20047;-72
2022/11/10 04:29:13;;;;;;;16.17;3.92;;;9.50;99.90;;;;;;5110155;27;20059;-72
2022/11/10 04:31:40;;;;;;;33.30;5.13;;;9.60;99.90;;;;;;5128264;27;20415;-73
2022/11/10 04:34:08;;;;;;;19.35;4.28;;;9.60;99.90;;;;;;5126922;27;20043;-74
2022/11/10 04:36:36;;;;;;;17.27;3.95;;;9.60;99.90;;;;;;5111769;27;20490;-74
2022/11/10 04:39:03;;;;;;;20.58;3.85;;;9.60;99.90;;;;;;5108409;27;20073;-74
2022/11/10 04:41:29;;;;;;;17.10;3.53;;;9.70;99.90;;;;;;5110009;27;20042;-74
2022/11/10 04:43:56;;;;;;;20.63;4.28;;;9.60;99.90;;;;;;5094032;27;20149;-74
2022/11/10 04:46:25;;;;;;;25.90;3.88;;;9.60;99.90;;;;;;5092365;27;20217;-74
2022/11/10 04:48:52;;;;;;;15.00;3.70;;;9.60;99.90;;;;;;5108444;27;20038;-74
2022/11/10 04:51:20;;;;;;;29.58;4.47;;;9.60;99.90;;;;;;5110559;27;20043;-74
2022/11/10 04:53:45;;;;;;;20.40;4.47;;;9.60;99.90;;;;;;5109907;27;20031;-74
2022/11/10 04:56:16;;;;;;;18.48;3.83;;;9.70;99.90;;;;;;5108978;27;20043;-74
2022/11/10 04:58:42;;;;;;;18.75;3.92;;;9.70;99.90;;;;;;5109926;27;20038;-74
2022/11/10 05:01:13;;;;;;;23.60;4.63;;;9.70;99.90;;;;;;5127393;27;20238;-74
2022/11/10 05:03:39;;;;;;;18.73;3.63;;;10.00;99.90;;;;;;5123693;27;20042;-75
2022/11/10 05:06:05;;;;;;;22.25;4.15;;;9.70;99.90;;;;;;5109309;27;20054;-74
2022/11/10 05:08:31;;;;;;;20.77;4.88;;;9.70;99.90;;;;;;5113619;27;20142;-74
2022/11/10 05:10:57;;;;;;;15.25;4.40;;;9.70;99.90;;;;;;5104265;27;20117;-74
2022/11/10 05:13:22;;;;;;;23.45;4.47;;;9.70;99.90;;;;;;5118536;27;20130;-73
2022/11/10 05:15:48;;;;;;;21.70;4.90;;;9.70;99.90;;;;;;5106767;27;20043;-74
2022/11/10 05:18:14;;;;;;;25.77;4.63;;;9.80;99.90;;;;;;5125485;27;20090;-74
2022/11/10 05:20:40;;;;;;;20.33;4.53;;;9.70;99.90;;;;;;5133657;27;20043;-74
2022/11/10 05:25:49;;;;;;;23.85;4.40;;;9.70;99.90;;;;;;5104452;27;20057;-74
2022/11/10 05:28:15;;;;;;;20.25;4.35;;;9.70;99.90;;;;;;5123686;27;20038;-74
2022/11/10 05:30:42;;;;;;;21.73;3.75;;;9.70;99.90;;;;;;5104033;27;20095;-74
2022/11/10 05:33:08;;;;;;;21.70;4.22;;;9.70;99.90;;;;;;5087265;27;20065;-74
2022/11/10 05:35:37;;;;;;;22.77;4.25;;;9.80;99.90;;;;;;5088063;27;20043;-73
2022/11/10 05:38:07;;;;;;;20.38;4.53;;;9.70;99.90;;;;;;5121936;27;20046;-73
2022/11/10 05:40:33;;;;;;;21.85;4.05;;;9.80;99.90;;;;;;5105777;27;20084;-73
2022/11/10 05:42:59;;;;;;;26.80;4.00;;;9.80;99.90;;;;;;5104641;27;20123;-73
2022/11/10 05:45:27;;;;;;;17.23;3.97;;;9.70;99.90;;;;;;5128891;27;20134;-73
2022/11/10 05:47:53;;;;;;;25.17;3.75;;;9.70;99.90;;;;;;5123808;27;20774;-74
2022/11/10 05:50:21;;;;;;;15.82;3.05;;;9.80;99.90;;;;;;5085680;27;20117;-73
2022/11/10 05:52:49;;;;;;;21.17;3.60;;;9.70;99.90;;;;;;5086252;27;20610;-74
2022/11/10 05:55:18;;;;;;;22.40;3.90;;;9.80;99.90;;;;;;5106160;27;20043;-73
2022/11/10 05:57:45;;;;;;;20.40;4.18;;;9.80;99.90;;;;;;5101572;27;20046;-75
2022/11/10 06:00:13;;;;;;;18.58;3.50;;;9.80;99.90;;;;;;5085596;27;20146;-73
2022/11/10 06:02:39;;;;;;;20.83;3.63;;;9.80;99.90;;;;;;5104524;27;20096;-72
2022/11/10 06:05:06;;;;;;;19.48;3.88;;;9.80;99.90;;;;;;5103823;27;20051;-73
2022/11/10 06:07:31;;;;;;;19.67;3.70;;;9.80;99.90;;;;;;5083359;27;20039;-74
2022/11/10 06:09:57;;;;;;;21.85;3.35;;;9.80;99.90;;;;;;5103479;27;20051;-72
2022/11/10 06:12:24;;;;;;;24.45;4.07;;;9.80;99.90;;;;;;5116323;27;20062;-72
2022/11/10 06:14:50;;;;;;;21.25;3.95;;;9.80;99.90;;;;;;5103595;27;20092;-72
2022/11/10 06:17:17;;;;;;;28.65;4.25;;;9.90;99.90;;;;;;5100766;27;20054;-74
2022/11/10 06:19:42;;;;;;;17.58;3.67;;;9.90;99.90;;;;;;5118841;27;20568;-73
2022/11/10 06:22:08;;;;;;;21.00;3.88;;;9.80;99.90;;;;;;5118917;27;20043;-73
2022/11/10 06:24:37;;;;;;;15.88;3.08;;;9.80;99.90;;;;;;5100272;27;20062;-74
2022/11/10 06:27:03;;;;;;;30.65;3.90;;;9.90;99.90;;;;;;5119723;27;20082;-74
2022/11/10 06:29:29;;;;;;;24.20;4.32;;;9.80;99.90;;;;;;5104123;27;20741;-74
2022/11/10 06:31:54;;;;;;;16.42;3.38;;;9.80;99.90;;;;;;5128118;27;20047;-74
2022/11/10 06:34:20;;;;;;;22.88;3.50;;;9.80;99.90;;;;;;5112099;27;20047;-74
2022/11/10 06:36:46;;;;;;;27.90;3.42;;;9.80;99.90;;;;;;5103807;27;20077;-74
2022/11/10 06:39:12;;;;;;;23.08;3.88;;;9.80;99.90;;;;;;5079127;27;20043;-73
2022/11/10 06:41:37;;;;;;;21.17;4.15;;;9.80;99.90;;;;;;5097169;27;20994;-74
2022/11/10 06:44:03;;;;;;;20.85;3.78;;;9.80;99.90;;;;;;5110141;27;20048;-73
2022/11/10 06:46:29;;;;;;;28.65;3.92;;;9.80;99.90;;;;;;5107013;27;20600;-73
2022/11/10 06:48:54;;;;;;;24.10;3.35;;;9.80;99.90;;;;;;5089080;27;20054;-73
2022/11/10 06:51:20;;;;;;;20.35;3.63;;;9.80;99.90;;;;;;5087535;27;20071;-73
2022/11/10 06:53:46;;;;;;;23.38;3.90;;;9.80;99.90;;;;;;5121113;27;20755;-73
2022/11/10 06:56:12;;;;;;;22.73;4.63;;;9.90;99.90;;;;;;5132310;27;20065;-73
2022/11/10 06:58:37;;;;;;;25.50;4.00;;;9.90;99.90;;;;;;5085251;27;20047;-73
2022/11/10 07:01:03;;;;;;;20.70;3.33;;;9.90;99.90;;;;;;5122627;27;20097;-74
2022/11/10 07:03:29;;;;;;;30.33;4.68;;;9.90;99.90;;;;;;5085663;27;20043;-73
2022/11/10 07:05:55;;;;;;;23.45;4.70;;;9.90;99.90;;;;;;5103097;27;20086;-74
2022/11/10 07:08:20;;;;;;;28.70;4.80;;;9.90;99.90;;;;;;5103997;27;20114;-74
2022/11/10 07:10:52;;;;;;;28.42;4.38;;;9.90;99.90;;;;;;5104139;27;20035;-74
2022/11/10 07:13:19;;;;;;;23.55;3.97;;;9.90;99.90;;;;;;5112339;27;20038;-73
2022/11/10 07:15:45;;;;;;;19.10;4.20;;;9.90;99.90;;;;;;5103664;27;20091;-74
2022/11/10 07:18:10;;;;;;;26.08;4.72;;;9.90;99.90;;;;;;5125175;27;20042;-74
2022/11/10 07:20:36;;;;;;;23.15;4.20;;;10.40;99.90;;;;;;5130865;27;22401;-73
2022/11/10 07:23:06;;;;;;;24.67;4.57;;;9.90;99.90;;;;;;5109119;27;20047;-73
2022/11/10 07:25:36;;;;;;;16.90;4.20;;;10.10;99.90;;;;;;5072194;27;20074;-74
2022/11/10 07:28:04;;;;;;;31.83;5.40;;;10.00;99.90;;;;;;5103885;27;20142;-74
2022/11/10 07:30:32;;;;;;;22.30;4.43;;;10.00;99.90;;;;;;5093643;27;20417;-74
2022/11/10 07:33:01;;;;;;;21.13;4.20;;;9.90;99.90;;;;;;5093718;27;20054;-74
2022/11/10 07:35:27;;;;;;;24.10;4.15;;;9.90;99.90;;;;;;5098717;27;20059;-74
2022/11/10 07:37:54;;;;;;;27.45;4.43;;;10.30;99.90;;;;;;5092862;27;20042;-75
2022/11/10 07:40:21;;;;;;;21.30;4.57;;;9.90;99.90;;;;;;5115071;27;20125;-74
2022/11/10 07:42:47;;;;;;;22.50;3.97;;;10.00;99.90;;;;;;5113626;27;20073;-75
2022/11/10 07:45:13;;;;;;;25.15;4.13;;;9.90;99.90;;;;;;5096981;27;20142;-75
2022/11/10 07:47:39;;;;;;;15.93;4.45;;;9.90;99.90;;;;;;5125887;27;20570;-74
2022/11/10 07:50:05;;;;;;;29.63;4.32;;;10.00;99.90;;;;;;5094257;27;20038;-74
2022/11/10 07:52:31;;;;;;;23.08;4.38;;;9.90;99.90;;;;;;5113298;27;20051;-74
2022/11/10 07:54:57;;;;;;;27.83;4.57;;;10.00;99.90;;;;;;5094850;27;20605;-74
2022/11/10 07:57:22;;;;;;;26.10;4.10;;;10.10;99.90;;;;;;5108154;27;20043;-74
2022/11/10 07:59:48;;;;;;;24.85;4.10;;;10.00;99.90;;;;;;5106786;27;20035;-74
2022/11/10 08:02:14;;;;;;;22.55;4.80;;;10.00;99.90;;;;;;5113505;27;20091;-74
2022/11/10 08:04:40;;;;;;;24.38;4.32;;;10.00;99.90;;;;;;5091147;27;20039;-73
2022/11/10 08:07:05;;;;;;;21.63;4.28;;;10.00;99.90;;;;;;5088158;27;20076;-73
2022/11/10 08:09:31;;;;;;;21.52;4.45;;;10.00;99.90;;;;;;5133266;27;20046;-73
2022/11/10 08:11:57;;;;;;;32.67;4.50;;;10.00;99.90;;;;;;5105257;27;20043;-73
2022/11/10 08:14:23;;;;;;;29.35;4.50;;;10.10;99.90;;;;;;5097938;27;20094;-73
2022/11/10 08:16:49;;;;;;;25.15;4.90;;;10.10;99.90;;;;;;5102059;27;20440;-74
2022/11/10 08:19:15;;;;;;;25.77;5.03;;;10.20;99.90;;;;;;5097905;27;20039;-73
2022/11/10 08:21:40;;;;;;;24.30;4.50;;;10.20;99.90;;;;;;5088348;27;20053;-73
2022/11/10 08:24:06;;;;;;;27.58;4.38;;;10.20;99.90;;;;;;5121886;27;20049;-73
2022/11/10 08:26:32;;;;;;;24.75;5.07;;;10.30;99.90;;;;;;5092463;27;20048;-73
2022/11/10 08:28:58;;;;;;;24.88;4.93;;;10.70;99.90;;;;;;5090893;27;20399;-73
2022/11/10 08:31:24;;;;;;;21.98;4.82;;;10.50;99.90;;;;;;5093607;27;20262;-73
2022/11/10 08:33:50;;;;;;;22.77;4.13;;;10.50;99.90;;;;;;5113745;27;20519;-73
2022/11/10 08:36:16;;;;;;;21.67;4.75;;;10.60;99.90;;;;;;5114855;27;20062;-73
2022/11/10 08:38:41;;;;;;;13.60;4.03;;;10.60;99.90;;;;;;5103075;27;20481;-73
2022/11/10 08:41:07;;;;;;;22.15;4.28;;;10.60;99.90;;;;;;5111643;27;20518;-73
2022/11/10 08:43:33;;;;;;;28.08;5.00;;;10.70;99.90;;;;;;5116987;27;20050;-72
2022/11/10 08:46:00;;;;;;;23.10;5.03;;;10.70;99.90;;;;;;5121887;27;20150;-72
2022/11/10 08:48:26;;;;;;;21.45;4.78;;;10.70;99.90;;;;;;5090339;27;20988;-72
2022/11/10 08:50:52;;;;;;;24.73;4.50;;;10.70;99.90;;;;;;5117809;27;20085;-73
2022/11/10 08:53:23;;;;;;;26.92;5.35;;;10.80;99.90;;;;;;5101597;27;20394;-73
2022/11/10 08:55:49;;;;;;;20.93;4.27;;;10.70;99.90;;;;;;5090977;27;20039;-73
2022/11/10 08:58:17;;;;;;;25.40;5.45;;;10.70;99.90;;;;;;5122943;27;20039;-73
2022/11/10 09:00:43;;;;;;;26.92;4.70;;;10.70;99.90;;;;;;5116195;27;20077;-73
2022/11/10 09:03:20;;;;;;;19.60;5.03;;;10.80;99.90;;;;;;5103136;27;20824;-73
2022/11/10 09:05:47;;;;;;;27.13;5.35;;;10.90;99.90;;;;;;5084709;27;20667;-73
2022/11/10 09:08:13;;;;;;;21.85;5.25;;;10.90;99.90;;;;;;5086718;27;20108;-74
2022/11/10 09:10:41;;;;;;;25.50;4.57;;;10.90;99.90;;;;;;5081852;27;20031;-73
2022/11/10 09:13:08;;;;;;;22.80;5.45;;;11.00;99.90;;;;;;5097049;27;20043;-73
2022/11/10 09:15:38;;;;;;;26.85;4.60;;;11.10;99.90;;;;;;5103371;27;20046;-73
2022/11/10 09:18:05;;;;;;;29.05;5.50;;;11.00;99.90;;;;;;5114937;27;20059;-73
2022/11/10 09:20:34;;;;;;;17.58;4.30;;;11.00;99.90;;;;;;5087099;27;20046;-73
2022/11/10 09:23:14;;;;;;;19.05;5.20;;;11.10;99.90;;;;;;5083004;27;20458;-74
2022/11/10 09:25:42;;;;;;;22.10;5.00;;;11.10;99.90;;;;;;5103129;27;20836;-73
2022/11/10 09:28:12;;;;;;;22.67;5.95;;;11.20;99.90;;;;;;5091650;27;20137;-74
2022/11/10 09:30:39;;;;;;;23.20;5.57;;;11.20;99.90;;;;;;5122247;27;20043;-73
2022/11/10 09:33:05;;;;;;;27.23;6.45;;;11.20;99.90;;;;;;5103860;27;20045;-73
2022/11/10 09:35:31;;;;;;;32.00;6.28;;;11.40;99.90;;;;;;5104551;27;20093;-73
2022/11/10 09:37:56;;;;;;;30.05;6.28;;;11.30;99.90;;;;;;5118799;27;20504;-73
2022/11/10 09:40:30;;;;;;;30.55;6.43;;;11.30;99.90;;;;;;5126553;27;20119;-73
2022/11/10 09:42:59;;;;;;;23.08;5.47;;;11.30;99.90;;;;;;5103937;27;20078;-74
2022/11/10 09:45:41;;;;;;;38.85;6.82;;;11.40;99.90;;;;;;5108346;27;20276;-74
2022/11/10 09:48:18;;;;;;;27.17;6.53;;;11.40;99.90;;;;;;5105285;27;20043;-73
2022/11/10 09:50:51;;;;;;;26.55;7.18;;;11.40;99.90;;;;;;5111453;27;20671;-74
2022/11/10 09:53:24;;;;;;;20.38;6.57;;;11.40;99.90;;;;;;5120015;27;20078;-73
2022/11/10 09:55:55;;;;;;;19.77;7.28;;;11.70;99.90;;;;;;5106106;27;20054;-74
2022/11/10 09:58:25;;;;;;;29.33;7.03;;;11.40;99.90;;;;;;5132092;27;20119;-73
2022/11/10 10:01:13;;;;;;;31.30;6.90;;;11.50;99.90;;;;;;5114476;27;20458;-73
2022/11/10 10:03:52;;;;;;;28.80;6.15;;;11.70;99.90;;;;;;5121529;27;20089;-73
2022/11/10 10:06:20;;;;;;;22.27;5.80;;;11.50;99.90;;;;;;5106505;27;20122;-74
2022/11/10 10:08:52;;;;;;;26.80;7.18;;;11.50;99.90;;;;;;5096637;27;20078;-73
2022/11/10 10:11:17;;;;;;;25.85;5.72;;;11.50;99.90;;;;;;5120222;27;20043;-74
2022/11/10 10:14:00;;;;;;;25.60;5.68;;;11.50;99.90;;;;;;5136420;27;20065;-73
2022/11/10 10:17:16;;;;;;;19.27;5.28;;;11.60;99.90;;;;;;5115343;27;20099;-74
2022/11/10 10:20:23;;;;;;;21.92;5.47;;;11.60;99.90;;;;;;5084479;27;20048;-73
2022/11/10 10:23:08;;;;;;;24.58;5.25;;;11.60;99.90;;;;;;5138706;27;20115;-72
2022/11/10 10:25:37;;;;;;;22.40;5.40;;;11.70;99.90;;;;;;5115321;27;20041;-73
2022/11/10 10:28:15;;;;;;;18.80;5.75;;;11.70;99.90;;;;;;5101708;27;20056;-74
2022/11/10 10:30:42;;;;;;;23.42;5.93;;;11.70;99.90;;;;;;5108165;27;20040;-73
2022/11/10 10:33:14;;;;;;;20.88;4.88;;;11.70;99.90;;;;;;5098238;27;20057;-73
2022/11/10 10:35:42;;;;;;;24.90;5.22;;;11.80;99.90;;;;;;5096943;27;20051;-73
2022/11/10 10:38:27;;;;;;;24.90;5.50;;;11.80;99.90;;;;;;5092990;27;20040;-73
2022/11/10 10:40:58;;;;;;;30.42;5.00;;;11.90;99.90;;;;;;5100884;27;20042;-73
2022/11/10 10:43:24;;;;;;;23.85;5.45;;;12.00;99.90;;;;;;5097181;28;20126;-73
2022/11/10 10:46:26;;;;;;;21.98;5.50;;;11.90;99.90;;;;;;5123150;27;20130;-74
2022/11/10 10:49:17;;;;;;;21.42;4.78;;;12.00;99.90;;;;;;5099947;27;20114;-73
2022/11/10 10:51:43;;;;;;;23.90;4.85;;;12.10;99.90;;;;;;5130275;27;20815;-73
2022/11/10 10:54:23;;;;;;;25.50;5.07;;;12.10;99.90;;;;;;5129336;27;20063;-73
2022/11/10 10:56:49;;;;;;;21.85;4.28;;;12.20;99.90;;;;;;5134033;27;20416;-73
2022/11/10 10:59:20;;;;;;;25.30;5.20;;;12.60;99.90;;;;;;5099173;27;20404;-74
2022/11/10 11:01:51;;;;;;;21.50;4.50;;;12.30;99.90;;;;;;5127079;27;20035;-73
2022/11/10 11:04:29;;;;;;;23.07;5.33;;;12.30;99.90;;;;;;5104083;27;20071;-73
2022/11/10 11:07:04;;;;;;;26.08;4.65;;;12.30;99.90;;;;;;5101859;27;20292;-73
2022/11/10 11:09:42;;;;;;;23.63;4.85;;;12.40;99.90;;;;;;5083936;28;20055;-73
2022/11/10 11:12:32;;;;;;;19.80;4.40;;;12.40;99.90;;;;;;5104227;27;20055;-73
2022/11/10 11:15:29;;;;;;;33.00;4.97;;;12.40;99.90;;;;;;5098416;27;20386;-74
2022/11/10 11:18:01;;;;;;;21.55;3.67;;;12.50;99.90;;;;;;5106116;27;20428;-73
2022/11/10 11:21:01;;;;;;;25.02;4.75;;;12.60;99.90;;;;;;5087961;27;20055;-74
2022/11/10 11:23:42;;;;;;;25.70;4.15;;;12.60;99.90;;;;;;5100603;27;20750;-75
2022/11/10 11:26:31;;;;;;;26.73;3.65;;;12.60;99.90;;;;;;5112226;27;20519;-73
2022/11/10 11:29:17;;;;;;;19.20;3.50;;;12.60;99.90;;;;;;5100313;27;20072;-74
2022/11/10 11:32:19;;;;;;;28.70;5.35;;;12.60;99.90;;;;;;5131011;27;20515;-76
2022/11/10 11:35:14;;;;;;;24.70;3.88;;;12.60;99.90;;;;;;5101473;27;20062;-73
2022/11/10 11:38:01;;;;;;;17.98;4.18;;;12.60;99.90;;;;;;5087527;27;20039;-74
2022/11/10 11:40:55;;;;;;;26.70;4.50;;;12.70;99.90;;;;;;5102178;27;20191;-73
2022/11/10 11:43:29;;;;;;;28.35;4.47;;;12.70;99.90;;;;;;5120527;27;20495;-74
2022/11/10 11:46:22;;;;;;;24.27;3.70;;;12.70;99.90;;;;;;5104338;27;20043;-73
2022/11/10 11:48:59;;;;;;;27.30;4.00;;;12.70;99.90;;;;;;5101850;27;20039;-74
2022/11/10 11:51:38;;;;;;;24.45;3.90;;;12.80;99.90;;;;;;5134491;27;20098;-74
2022/11/10 11:54:13;;;;;;;25.90;3.83;;;12.80;99.90;;;;;;5121522;27;20047;-73
2022/11/10 11:56:43;;;;;;;23.73;3.75;;;12.80;99.90;;;;;;5133756;27;20107;-74
2022/11/10 11:59:37;;;;;;;21.92;3.40;;;12.80;99.90;;;;;;5119252;27;20082;-75
2022/11/10 12:02:27;;;;;;;23.25;3.38;;;12.90;99.90;;;;;;5100498;27;20047;-75
2022/11/10 12:05:31;;;;;;;20.13;3.53;;;12.90;99.90;;;;;;5104348;27;20043;-74
2022/11/10 12:08:15;;;;;;;22.08;3.10;;;12.90;99.90;;;;;;5106303;27;20133;-74
2022/11/10 12:11:08;;;;;;;20.23;3.20;;;12.80;99.90;;;;;;5104036;27;20360;-74
2022/11/10 12:14:02;;;;;;;20.65;3.28;;;12.90;99.90;;;;;;5105082;27;20551;-74
2022/11/10 12:16:32;;;;;;;21.75;3.15;;;12.90;99.90;;;;;;5088410;27;20047;-74
2022/11/10 12:19:26;;;;;;;23.97;4.30;;;12.90;99.90;;;;;;5106657;27;20043;-74
2022/11/10 12:22:05;;;;;;;25.58;4.10;;;12.90;99.90;;;;;;5106649;27;20513;-74
2022/11/10 12:24:52;;;;;;;20.00;3.50;;;12.90;99.90;;;;;;5106704;27;20492;-74
2022/11/10 12:27:24;;;;;;;23.15;3.60;;;13.00;99.90;;;;;;5106613;27;21358;-74
2022/11/10 12:29:55;;;;;;;19.90;3.28;;;12.90;99.90;;;;;;5125059;27;20047;-74
2022/11/10 12:32:24;;;;;;;;;;;13.00;99.90;;;;;;5106436;27;20264;-74
2022/11/10 12:35:05;;;;;;;23.90;3.67;;;12.90;99.90;;;;;;5105708;27;20313;-74
2022/11/10 12:38:02;;;;;;;19.90;3.47;;;12.90;99.90;;;;;;5091035;27;20136;-75
2022/11/10 12:40:35;;;;;;;21.85;3.88;;;13.00;99.90;;;;;;5109132;27;20726;-75
2022/11/10 12:43:08;;;;;;;22.48;3.15;;;12.90;99.90;;;;;;5101957;27;20046;-75
2022/11/10 12:45:44;;;;;;;18.63;3.40;;;12.90;99.90;;;;;;5106372;27;20527;-75
2022/11/10 12:48:12;;;;;;;17.35;3.10;;;12.90;99.90;;;;;;5106471;27;20702;-75
2022/11/10 12:50:37;;;;;;;22.00;3.03;;;13.00;99.90;;;;;;5106883;27;20047;-75
2022/11/10 12:53:14;;;;;;;20.05;3.40;;;13.00;99.90;;;;;;5135299;27;20072;-74
2022/11/10 12:55:48;;;;;;;19.38;3.55;;;13.00;99.90;;;;;;5125534;27;20043;-75
2022/11/10 12:58:15;;;;;;;23.08;3.20;;;13.00;99.90;;;;;;5104665;27;20553;-76
2022/11/10 13:01:01;;;;;;;20.35;3.50;;;13.00;99.90;;;;;;5105704;27;20050;-74
2022/11/10 13:03:36;;;;;;;16.88;2.75;;;13.00;99.90;;;;;;5121312;27;20047;-75
2022/11/10 13:06:07;;;;;;;20.23;3.20;;;13.00;99.90;;;;;;5124068;27;20035;-75
2022/11/10 13:08:43;;;;;;;;;;;13.00;99.90;;;;;;5130341;27;20078;-75
2022/11/10 13:11:11;;;;;;;14.63;3.25;;;13.10;99.90;;;;;;5123570;27;19923;-75